Time;durP1;ratioP1;P1;durP2;ratioP2;P2;SDS_P1;SDS_P2;PMS_P1;PMS_P2;Temp;Humidity;BMP_temperature;BMP_pressure;BME280_temperature;BME280_humidity;BME280_pressure;Samples;Min_cycle;Max_cycle;Signal;HPM_P1;HPM_P2
2024/03/01 00:01:29;;;;;;;5.28;1.77;;;23.70;99.90;;;;;;4954184;28;20039;-41
2024/03/01 00:03:54;;;;;;;5.88;1.92;;;23.70;99.90;;;;;;4953669;28;20023;-42
2024/03/01 00:06:20;;;;;;;2.70;1.67;;;23.70;99.90;;;;;;4954391;29;20506;-42
2024/03/01 00:08:46;;;;;;;2.65;1.55;;;23.60;99.90;;;;;;4953467;28;20114;-42
2024/03/01 00:11:12;;;;;;;3.25;1.95;;;23.60;99.90;;;;;;4953957;28;20151;-44
2024/03/01 00:13:37;;;;;;;2.80;1.77;;;23.70;99.90;;;;;;4954394;28;20440;-45
2024/03/01 00:16:03;;;;;;;2.72;1.70;;;23.60;99.90;;;;;;4953742;28;20468;-44
2024/03/01 00:18:29;;;;;;;3.50;1.73;;;23.60;99.90;;;;;;4954415;28;20106;-44
2024/03/01 00:20:55;;;;;;;1.85;1.13;;;23.60;99.90;;;;;;4936678;28;20156;-45
2024/03/01 00:23:21;;;;;;;2.63;1.63;;;23.60;99.90;;;;;;4956838;23;20086;-49
2024/03/01 00:25:47;;;;;;;3.42;1.42;;;23.60;99.90;;;;;;4944831;29;20027;-52
2024/03/01 00:28:13;;;;;;;2.78;1.60;;;23.60;99.90;;;;;;4952726;28;20122;-50
2024/03/01 00:30:38;;;;;;;1.92;1.33;;;23.60;99.90;;;;;;4953451;29;20061;-49
2024/03/01 00:33:04;;;;;;;4.63;1.65;;;23.50;99.90;;;;;;4953522;28;20449;-50
2024/03/01 00:35:30;;;;;;;2.35;1.50;;;23.50;99.90;;;;;;4948297;29;20530;-49
2024/03/01 00:37:56;;;;;;;2.08;1.33;;;23.50;99.90;;;;;;4953475;28;20098;-52
2024/03/01 00:40:22;;;;;;;3.65;1.40;;;23.50;99.90;;;;;;4936922;29;20400;-51
2024/03/01 00:42:47;;;;;;;1.85;1.48;;;23.50;99.90;;;;;;4953385;29;20051;-51
2024/03/01 00:45:14;;;;;;;4.15;1.67;;;23.50;99.90;;;;;;4953574;29;20504;-50
2024/03/01 00:47:47;;;;;;;2.28;1.45;;;23.50;99.90;;;;;;4954073;28;20372;-54
2024/03/01 00:50:14;;;;;;;2.25;1.50;;;23.50;99.90;;;;;;4931826;29;20114;-51
2024/03/01 00:52:40;;;;;;;3.67;1.97;;;23.50;99.90;;;;;;4927632;29;20061;-51
2024/03/01 00:55:06;;;;;;;2.47;1.55;;;23.50;99.90;;;;;;4953837;28;20324;-50
2024/03/01 00:57:32;;;;;;;4.32;1.60;;;23.40;99.90;;;;;;4953378;28;20031;-51
2024/03/01 00:59:59;;;;;;;4.38;1.80;;;23.40;99.90;;;;;;4953131;29;20024;-50
2024/03/01 01:02:25;;;;;;;2.90;1.60;;;23.40;99.90;;;;;;4953937;29;20035;-51
2024/03/01 01:04:51;;;;;;;3.92;1.67;;;23.40;99.90;;;;;;4953635;29;20050;-51
2024/03/01 01:07:16;;;;;;;3.83;1.60;;;23.40;99.90;;;;;;4947001;29;20126;-51
2024/03/01 01:09:43;;;;;;;3.78;1.92;;;23.40;99.90;;;;;;4953908;29;20019;-51
2024/03/01 01:12:09;;;;;;;2.75;1.38;;;23.40;99.90;;;;;;4953428;29;20027;-51
2024/03/01 01:14:34;;;;;;;2.28;1.33;;;23.40;99.90;;;;;;4953433;28;20020;-52
2024/03/01 01:17:01;;;;;;;3.15;1.60;;;23.40;99.90;;;;;;4952947;28;20034;-51
2024/03/01 01:19:27;;;;;;;4.38;1.83;;;23.30;99.90;;;;;;4953396;28;20028;-52
2024/03/01 01:21:53;;;;;;;3.92;1.70;;;23.30;99.90;;;;;;4964331;23;20052;-50
2024/03/01 01:24:18;;;;;;;4.13;1.85;;;23.30;99.90;;;;;;4953174;28;20035;-50
2024/03/01 01:26:44;;;;;;;3.47;1.90;;;23.30;99.90;;;;;;4953360;28;20031;-51
2024/03/01 01:29:10;;;;;;;3.50;1.70;;;23.30;99.90;;;;;;4953098;28;20078;-50
2024/03/01 01:31:36;;;;;;;4.85;1.70;;;23.30;99.90;;;;;;4952519;28;20019;-51
2024/03/01 01:34:02;;;;;;;4.50;1.75;;;23.20;99.90;;;;;;4939884;28;20036;-51
2024/03/01 01:36:27;;;;;;;3.92;1.45;;;23.20;99.90;;;;;;4952028;28;20050;-52
2024/03/01 01:38:53;;;;;;;4.43;1.75;;;23.20;99.90;;;;;;4950618;28;20039;-51
2024/03/01 01:41:19;;;;;;;2.83;1.90;;;23.20;99.90;;;;;;4951677;28;20138;-52
2024/03/01 01:43:45;;;;;;;3.63;1.48;;;23.20;99.90;;;;;;4952772;28;20476;-52
2024/03/01 01:46:13;;;;;;;2.17;1.42;;;23.20;99.90;;;;;;4954102;28;20479;-51
2024/03/01 01:48:40;;;;;;;5.50;2.10;;;23.20;99.90;;;;;;4956257;28;20030;-53
2024/03/01 01:51:06;;;;;;;5.07;1.58;;;23.10;99.90;;;;;;4956397;28;20030;-52
2024/03/01 01:53:33;;;;;;;6.65;1.73;;;23.20;99.90;;;;;;4956663;28;20015;-51
2024/03/01 01:56:00;;;;;;;3.80;1.73;;;23.10;99.90;;;;;;4956633;28;20488;-51
2024/03/01 01:58:28;;;;;;;3.63;1.60;;;23.10;99.90;;;;;;4956468;28;20479;-52
2024/03/01 02:00:55;;;;;;;2.17;1.50;;;23.10;99.90;;;;;;4956364;28;20122;-53
2024/03/01 02:03:22;;;;;;;4.15;1.83;;;23.10;99.90;;;;;;4956305;28;20125;-53
2024/03/01 02:05:48;;;;;;;4.47;1.60;;;23.10;99.90;;;;;;4938801;29;20027;-52
2024/03/01 02:08:14;;;;;;;6.10;1.30;;;23.00;99.90;;;;;;4956065;28;20027;-52
2024/03/01 02:10:40;;;;;;;4.70;1.85;;;23.00;99.90;;;;;;4956474;28;20133;-52
2024/03/01 02:13:17;;;;;;;2.88;1.85;;;23.10;99.90;;;;;;4956062;28;20038;-52
2024/03/01 02:15:43;;;;;;;2.88;1.67;;;23.10;99.90;;;;;;4956362;28;20031;-52
2024/03/01 02:18:09;;;;;;;4.18;1.55;;;23.00;99.90;;;;;;4956089;28;20494;-52
2024/03/01 02:20:38;;;;;;;3.25;1.77;;;23.00;99.90;;;;;;4938815;29;20118;-52
2024/03/01 02:23:13;;;;;;;2.50;1.48;;;23.00;99.90;;;;;;4955850;28;20043;-52
2024/03/01 02:25:39;;;;;;;2.50;1.40;;;23.00;99.90;;;;;;4955989;28;20078;-52
2024/03/01 02:28:04;;;;;;;3.65;1.52;;;22.90;99.90;;;;;;4956251;28;20027;-53
2024/03/01 02:30:30;;;;;;;2.88;1.40;;;22.90;99.90;;;;;;4969460;28;20069;-52
2024/03/01 02:32:56;;;;;;;3.92;1.77;;;22.90;99.90;;;;;;4975417;28;20054;-52
2024/03/01 02:35:22;;;;;;;3.88;1.77;;;22.80;99.90;;;;;;4974563;28;20039;-52
2024/03/01 02:37:47;;;;;;;8.07;1.80;;;22.90;99.90;;;;;;4972412;28;20023;-52
2024/03/01 02:40:13;;;;;;;3.17;1.70;;;22.80;99.90;;;;;;4966389;28;20043;-52
2024/03/01 02:42:39;;;;;;;3.85;1.55;;;22.80;99.90;;;;;;4967880;28;20031;-52
2024/03/01 02:45:05;;;;;;;2.72;1.40;;;22.80;99.90;;;;;;4965522;28;20026;-52
2024/03/01 02:47:31;;;;;;;2.85;1.50;;;22.80;99.90;;;;;;4970684;28;20069;-52
2024/03/01 02:49:57;;;;;;;3.22;1.63;;;22.80;99.90;;;;;;4973738;28;20463;-52
2024/03/01 02:52:22;;;;;;;6.43;1.50;;;22.70;99.90;;;;;;4955159;28;20359;-52
2024/03/01 02:54:48;;;;;;;3.92;1.77;;;22.70;99.90;;;;;;4974905;28;20037;-52
2024/03/01 02:57:14;;;;;;;25.27;2.00;;;22.70;99.90;;;;;;4973531;28;20035;-53
2024/03/01 02:59:40;;;;;;;4.32;1.58;;;22.70;99.90;;;;;;4974826;28;20027;-52
2024/03/01 03:02:06;;;;;;;3.78;1.60;;;22.70;99.90;;;;;;4962847;28;20058;-52
2024/03/01 03:04:32;;;;;;;3.03;1.60;;;22.60;99.90;;;;;;4954416;29;20024;-52
2024/03/01 03:06:59;;;;;;;4.57;1.23;;;22.70;99.90;;;;;;4955698;28;20082;-53
2024/03/01 03:09:25;;;;;;;3.08;1.70;;;22.60;99.90;;;;;;4955661;29;20107;-52
2024/03/01 03:11:51;;;;;;;2.60;1.35;;;22.60;99.90;;;;;;4955359;29;20110;-52
2024/03/01 03:14:17;;;;;;;3.85;1.63;;;22.60;99.90;;;;;;4954649;28;20035;-53
2024/03/01 03:16:43;;;;;;;1.83;1.20;;;22.50;99.90;;;;;;4955361;29;20035;-53
2024/03/01 03:19:08;;;;;;;3.35;1.58;;;22.50;99.90;;;;;;4955365;28;20024;-53
2024/03/01 03:21:35;;;;;;;4.47;1.40;;;22.50;99.90;;;;;;4938940;29;20035;-53
2024/03/01 03:24:01;;;;;;;9.02;1.70;;;22.50;99.90;;;;;;4938297;29;20031;-52
2024/03/01 03:26:27;;;;;;;2.60;1.17;;;22.50;99.90;;;;;;4955744;29;20106;-53
2024/03/01 03:28:53;;;;;;;4.70;1.25;;;22.50;99.90;;;;;;4955363;28;20102;-52
2024/03/01 03:31:19;;;;;;;3.83;1.67;;;22.40;99.90;;;;;;4955243;28;20031;-52
2024/03/01 03:33:45;;;;;;;3.30;1.60;;;22.40;99.90;;;;;;4955205;29;20102;-53
2024/03/01 03:36:10;;;;;;;4.25;1.90;;;22.40;99.90;;;;;;4955232;29;20035;-52
2024/03/01 03:38:36;;;;;;;4.47;1.42;;;22.40;99.90;;;;;;4955022;28;20436;-52
2024/03/01 03:41:02;;;;;;;4.28;1.45;;;22.40;99.90;;;;;;4955331;28;20046;-52
2024/03/01 03:43:28;;;;;;;5.55;1.25;;;22.30;99.90;;;;;;4955056;28;20436;-52
2024/03/01 03:45:53;;;;;;;2.63;1.65;;;22.30;99.90;;;;;;4954909;29;20063;-53
2024/03/01 03:48:19;;;;;;;3.65;1.45;;;22.20;99.90;;;;;;4954843;28;20118;-52
2024/03/01 03:50:45;;;;;;;2.75;1.23;;;22.30;99.90;;;;;;4955023;29;20061;-52
2024/03/01 03:53:10;;;;;;;2.65;1.40;;;22.20;99.90;;;;;;4937575;29;20026;-51
2024/03/01 03:55:36;;;;;;;3.47;1.50;;;22.20;99.90;;;;;;4955126;29;20027;-51
2024/03/01 03:58:02;;;;;;;3.55;1.65;;;22.20;99.90;;;;;;4954892;29;20032;-51
2024/03/01 04:00:28;;;;;;;3.22;1.30;;;22.20;99.90;;;;;;4954605;28;20031;-52
2024/03/01 04:02:54;;;;;;;2.65;1.58;;;22.20;99.90;;;;;;4954717;28;20105;-51
2024/03/01 04:05:19;;;;;;;5.18;1.60;;;22.20;99.90;;;;;;4937536;29;20145;-52
2024/03/01 04:07:45;;;;;;;4.95;1.55;;;22.20;99.90;;;;;;4954569;29;20027;-52
2024/03/01 04:10:12;;;;;;;3.95;1.35;;;22.10;99.90;;;;;;4954453;28;20475;-52
2024/03/01 04:12:38;;;;;;;3.20;1.42;;;22.10;99.90;;;;;;4954504;28;20055;-52
2024/03/01 04:15:05;;;;;;;3.22;1.52;;;22.10;99.90;;;;;;4954820;29;20513;-52
2024/03/01 04:17:31;;;;;;;3.85;1.73;;;22.10;99.90;;;;;;4954514;28;20106;-52
2024/03/01 04:19:57;;;;;;;4.22;1.40;;;22.10;99.90;;;;;;4937108;29;20034;-52
2024/03/01 04:22:22;;;;;;;2.88;1.63;;;22.10;99.90;;;;;;4965610;23;20055;-42
2024/03/01 04:24:49;;;;;;;7.13;1.60;;;22.00;99.90;;;;;;4954208;29;20479;-42
2024/03/01 04:27:15;;;;;;;4.15;1.90;;;22.00;99.90;;;;;;4954304;28;20055;-41
2024/03/01 04:29:41;;;;;;;7.80;1.35;;;22.00;99.90;;;;;;4937010;29;20051;-41
2024/03/01 04:32:09;;;;;;;3.58;1.70;;;22.00;99.90;;;;;;4954398;28;20028;-42
2024/03/01 04:34:35;;;;;;;3.15;1.20;;;22.00;99.90;;;;;;4954560;28;20387;-42
2024/03/01 04:37:01;;;;;;;4.40;1.60;;;22.00;99.90;;;;;;4936995;29;20023;-42
2024/03/01 04:39:27;;;;;;;4.75;1.73;;;22.00;99.90;;;;;;4954445;29;20426;-42
2024/03/01 04:41:53;;;;;;;5.40;1.63;;;21.90;99.90;;;;;;4936848;29;20342;-42
2024/03/01 04:44:19;;;;;;;3.25;1.15;;;21.90;99.90;;;;;;4954085;29;20034;-42
2024/03/01 04:46:45;;;;;;;3.22;1.30;;;21.90;99.90;;;;;;4954231;28;20031;-42
2024/03/01 04:49:11;;;;;;;4.63;1.15;;;21.90;99.90;;;;;;4954213;28;20020;-42
2024/03/01 04:51:37;;;;;;;3.47;1.67;;;21.90;99.90;;;;;;4953902;29;20024;-42
2024/03/01 04:54:03;;;;;;;3.45;1.30;;;21.90;99.90;;;;;;4932923;29;20507;-42
2024/03/01 04:56:29;;;;;;;2.75;1.02;;;21.90;99.90;;;;;;4934155;29;20102;-42
2024/03/01 05:01:30;;;;;;;3.10;0.98;;;21.80;99.90;;;;;;5808399;23;20032;-41
2024/03/01 05:03:55;;;;;;;8.00;1.40;;;21.80;99.90;;;;;;4954027;28;20034;-41
2024/03/01 05:06:21;;;;;;;2.97;1.65;;;21.80;99.90;;;;;;4954023;28;20031;-41
2024/03/01 05:08:47;;;;;;;6.65;1.75;;;21.80;99.90;;;;;;4953905;28;20499;-43
2024/03/01 05:11:14;;;;;;;4.28;1.38;;;21.70;99.90;;;;;;4954010;28;20036;-42
2024/03/01 05:13:41;;;;;;;3.33;1.13;;;21.70;99.90;;;;;;4954011;29;20027;-42
2024/03/01 05:16:07;;;;;;;2.72;1.05;;;21.70;99.90;;;;;;4953822;29;20046;-41
2024/03/01 05:18:32;;;;;;;3.30;1.20;;;21.70;99.90;;;;;;4936708;29;20027;-41
2024/03/01 05:20:58;;;;;;;4.35;1.58;;;21.70;99.90;;;;;;4938367;28;20129;-41
2024/03/01 05:23:24;;;;;;;5.13;1.30;;;21.70;99.90;;;;;;4957679;28;20027;-42
2024/03/01 05:25:51;;;;;;;2.42;1.08;;;21.70;99.90;;;;;;4940659;28;20027;-41
2024/03/01 05:28:17;;;;;;;2.67;1.17;;;21.60;99.90;;;;;;4957693;28;20027;-42
2024/03/01 05:30:44;;;;;;;2.83;1.00;;;21.70;99.90;;;;;;4957618;28;20024;-42
2024/03/01 05:33:12;;;;;;;5.07;1.02;;;21.70;99.90;;;;;;4957479;28;20023;-42
2024/03/01 05:35:38;;;;;;;4.38;1.70;;;21.60;99.90;;;;;;4940380;29;20395;-42
2024/03/01 05:38:04;;;;;;;2.47;1.10;;;21.60;99.90;;;;;;4957342;28;20035;-41
2024/03/01 05:40:30;;;;;;;2.08;0.80;;;21.60;99.90;;;;;;4957347;28;20046;-41
2024/03/01 05:42:56;;;;;;;3.22;1.23;;;21.60;99.90;;;;;;4957229;28;20098;-42
2024/03/01 05:45:21;;;;;;;3.17;1.40;;;21.50;99.90;;;;;;4957272;28;20028;-41
2024/03/01 05:47:47;;;;;;;3.35;1.20;;;21.50;99.90;;;;;;4957127;28;20391;-41
2024/03/01 05:50:15;;;;;;;2.38;1.05;;;21.50;99.90;;;;;;4924027;29;20570;-41
2024/03/01 05:52:42;;;;;;;4.95;0.98;;;21.50;99.90;;;;;;4957149;28;20023;-42
2024/03/01 05:55:09;;;;;;;2.05;0.95;;;21.50;99.90;;;;;;4957157;29;20029;-41
2024/03/01 05:57:35;;;;;;;2.95;1.23;;;21.50;99.90;;;;;;4939853;29;20023;-42
2024/03/01 06:00:09;;;;;;;3.05;1.23;;;21.50;99.90;;;;;;4957107;28;20048;-41
2024/03/01 06:02:36;;;;;;;3.88;0.93;;;21.40;99.90;;;;;;4956779;29;20047;-41
2024/03/01 06:05:02;;;;;;;4.00;1.10;;;21.40;99.90;;;;;;4939838;29;20024;-41
2024/03/01 06:07:28;;;;;;;3.70;1.27;;;21.40;99.90;;;;;;4939713;29;20027;-43
2024/03/01 06:09:54;;;;;;;4.47;1.45;;;21.40;99.90;;;;;;4956721;29;20051;-42
2024/03/01 06:12:20;;;;;;;3.97;1.20;;;21.40;99.90;;;;;;4956838;28;20039;-42
2024/03/01 06:14:45;;;;;;;6.85;1.45;;;21.40;99.90;;;;;;4956561;29;20027;-42
2024/03/01 06:17:11;;;;;;;3.38;1.33;;;21.30;99.90;;;;;;4956547;29;20023;-42
2024/03/01 06:19:37;;;;;;;3.88;1.52;;;21.30;99.90;;;;;;4956618;29;20373;-43
2024/03/01 06:22:03;;;;;;;2.15;1.10;;;21.30;99.90;;;;;;4956624;28;20476;-42
2024/03/01 06:24:28;;;;;;;1.70;0.93;;;21.30;99.90;;;;;;4939313;29;20464;-42
2024/03/01 06:26:55;;;;;;;3.25;1.10;;;21.30;99.90;;;;;;4939145;29;20038;-42
2024/03/01 06:29:21;;;;;;;3.42;1.02;;;21.30;99.90;;;;;;4956388;28;20054;-42
2024/03/01 06:31:47;;;;;;;3.90;1.05;;;21.30;99.90;;;;;;4938046;28;20475;-42
2024/03/01 06:34:12;;;;;;;3.28;1.02;;;21.20;99.90;;;;;;4955901;28;20042;-42
2024/03/01 06:36:38;;;;;;;1.98;1.08;;;21.20;99.90;;;;;;4956130;28;20023;-45
2024/03/01 06:39:06;;;;;;;2.97;1.10;;;21.20;99.90;;;;;;4956331;28;20038;-42
2024/03/01 06:41:32;;;;;;;5.97;1.30;;;21.20;99.90;;;;;;4939324;29;20043;-42
2024/03/01 06:43:57;;;;;;;3.70;1.13;;;21.20;99.90;;;;;;4956080;29;20039;-42
2024/03/01 06:46:23;;;;;;;2.25;1.02;;;21.20;99.90;;;;;;4956082;29;20027;-42
2024/03/01 06:48:49;;;;;;;4.85;1.40;;;21.20;99.90;;;;;;4956009;28;20383;-42
2024/03/01 06:51:15;;;;;;;2.72;1.25;;;21.20;99.90;;;;;;4955925;28;20102;-41
2024/03/01 06:53:44;;;;;;;4.30;1.35;;;21.10;99.90;;;;;;4938670;29;20028;-41
2024/03/01 06:56:13;;;;;;;4.97;1.27;;;21.10;99.90;;;;;;4956043;28;20102;-43
2024/03/01 06:58:40;;;;;;;3.72;1.58;;;21.10;99.90;;;;;;4956039;28;20042;-42
2024/03/01 07:01:07;;;;;;;4.85;1.25;;;21.10;99.90;;;;;;4939111;29;20036;-43
2024/03/01 07:03:33;;;;;;;3.35;1.05;;;21.10;99.90;;;;;;4953265;28;20059;-43
2024/03/01 07:05:59;;;;;;;2.80;1.13;;;21.10;99.90;;;;;;4955771;28;20035;-42
2024/03/01 07:08:25;;;;;;;6.00;1.33;;;21.10;99.90;;;;;;4955649;28;20506;-42
2024/03/01 07:10:52;;;;;;;3.90;1.45;;;21.10;99.90;;;;;;4954421;28;20113;-42
2024/03/01 07:13:18;;;;;;;4.68;1.70;;;21.00;99.90;;;;;;4955600;28;20023;-48
2024/03/01 07:15:44;;;;;;;1.70;0.88;;;21.00;99.90;;;;;;4938412;29;20078;-43
2024/03/01 07:18:10;;;;;;;3.35;1.30;;;21.00;99.90;;;;;;4955517;28;20068;-43
2024/03/01 07:20:36;;;;;;;3.58;1.30;;;21.00;99.90;;;;;;4955773;28;20039;-42
2024/03/01 07:23:02;;;;;;;2.42;1.35;;;21.00;99.90;;;;;;4955379;28;20383;-43
2024/03/01 07:25:28;;;;;;;2.90;1.17;;;21.00;99.90;;;;;;4955571;28;20098;-43
2024/03/01 07:27:54;;;;;;;5.32;1.27;;;21.00;99.90;;;;;;4955558;28;20471;-43
2024/03/01 07:30:19;;;;;;;5.60;1.40;;;21.00;99.90;;;;;;4955442;28;20379;-42
2024/03/01 07:32:46;;;;;;;4.05;1.58;;;21.00;99.90;;;;;;4955361;28;20399;-43
2024/03/01 07:35:12;;;;;;;3.85;1.75;;;21.10;99.90;;;;;;4955250;28;20432;-42
2024/03/01 07:37:39;;;;;;;1.92;0.70;;;21.00;99.90;;;;;;4955402;28;20023;-43
2024/03/01 07:40:05;;;;;;;5.15;1.33;;;21.10;99.90;;;;;;4955244;28;20023;-42
2024/03/01 07:42:31;;;;;;;3.35;1.10;;;21.10;99.90;;;;;;4955160;28;20032;-42
2024/03/01 07:44:57;;;;;;;3.38;1.58;;;21.10;99.90;;;;;;4953380;28;20027;-42
2024/03/01 07:47:29;;;;;;;2.22;0.73;;;21.10;99.90;;;;;;4955060;28;20027;-42
2024/03/01 07:49:56;;;;;;;2.40;1.00;;;21.10;99.90;;;;;;4955001;28;20107;-43
2024/03/01 07:52:22;;;;;;;2.15;0.80;;;21.20;99.90;;;;;;4954962;28;20023;-43
2024/03/01 07:54:47;;;;;;;2.88;1.42;;;21.10;99.90;;;;;;4954838;28;20027;-43
2024/03/01 07:57:14;;;;;;;3.97;1.25;;;21.20;99.90;;;;;;4954808;28;20039;-42
2024/03/01 07:59:40;;;;;;;2.13;1.00;;;21.20;99.90;;;;;;4955116;28;20045;-42
2024/03/01 08:02:09;;;;;;;2.15;1.30;;;21.20;99.90;;;;;;4954578;28;20050;-42
2024/03/01 08:04:34;;;;;;;6.75;1.38;;;21.20;99.90;;;;;;4954694;28;20023;-42
2024/03/01 08:07:01;;;;;;;5.10;1.40;;;21.20;99.90;;;;;;4954490;28;20142;-42
2024/03/01 08:09:32;;;;;;;3.50;0.98;;;21.30;99.90;;;;;;4937429;28;20034;-42
2024/03/01 08:11:58;;;;;;;3.35;1.40;;;21.30;99.90;;;;;;4954492;29;20019;-42
2024/03/01 08:14:29;;;;;;;4.45;1.45;;;21.30;99.90;;;;;;4954496;28;20491;-43
2024/03/01 08:16:56;;;;;;;3.50;1.40;;;21.30;99.90;;;;;;4954439;28;20038;-42
2024/03/01 08:19:34;;;;;;;5.03;1.17;;;21.30;99.90;;;;;;4954516;28;20031;-41
2024/03/01 08:22:14;;;;;;;4.05;1.45;;;21.40;99.90;;;;;;4954368;28;20065;-41
2024/03/01 08:24:46;;;;;;;4.18;1.38;;;21.40;99.90;;;;;;4954431;29;20027;-42
2024/03/01 08:27:16;;;;;;;3.80;1.30;;;21.40;99.90;;;;;;4937394;28;20035;-41
2024/03/01 08:29:42;;;;;;;2.55;1.50;;;21.40;99.90;;;;;;4954570;28;20029;-43
2024/03/01 08:32:40;;;;;;;3.90;1.55;;;21.40;99.90;;;;;;4954423;29;20070;-42
2024/03/01 08:35:14;;;;;;;1.80;1.05;;;21.40;99.90;;;;;;4937129;29;20032;-42
2024/03/01 08:37:40;;;;;;;4.50;1.67;;;21.40;99.90;;;;;;4937136;29;20444;-44
2024/03/01 08:40:57;;;;;;;3.33;1.73;;;21.50;99.90;;;;;;4954343;28;20055;-43
2024/03/01 08:43:23;;;;;;;3.75;2.00;;;21.50;99.90;;;;;;4935357;29;20070;-42
2024/03/01 08:45:49;;;;;;;5.72;2.00;;;21.50;99.90;;;;;;4936872;29;20031;-42
2024/03/01 08:48:21;;;;;;;3.10;1.58;;;21.50;99.90;;;;;;4954148;28;20027;-41
2024/03/01 08:50:52;;;;;;;4.03;1.75;;;21.50;99.90;;;;;;4954135;28;20382;-41
2024/03/01 08:53:39;;;;;;;3.28;1.60;;;21.50;99.90;;;;;;4954167;28;20015;-42
2024/03/01 08:56:08;;;;;;;6.00;2.42;;;21.50;99.90;;;;;;4955935;28;20031;-41
2024/03/01 08:58:34;;;;;;;5.70;2.17;;;21.50;99.90;;;;;;4940962;29;20031;-41
2024/03/01 09:01:00;;;;;;;3.33;1.83;;;21.50;99.90;;;;;;4957962;28;20163;-42
2024/03/01 09:03:29;;;;;;;3.95;2.13;;;21.60;99.90;;;;;;4957880;28;20070;-42
2024/03/01 09:05:58;;;;;;;7.18;2.42;;;21.60;99.90;;;;;;4940589;29;20039;-41
2024/03/01 09:08:28;;;;;;;4.78;2.60;;;21.60;99.90;;;;;;4957646;28;20175;-43
2024/03/01 09:10:56;;;;;;;5.68;2.47;;;21.60;99.90;;;;;;4957702;28;20032;-41
2024/03/01 09:13:24;;;;;;;6.22;2.42;;;21.60;99.90;;;;;;4957462;28;20032;-42
2024/03/01 09:15:50;;;;;;;8.25;2.45;;;21.60;99.90;;;;;;4957825;29;20035;-42
2024/03/01 09:18:31;;;;;;;4.35;2.38;;;21.60;99.90;;;;;;4940311;29;20019;-43
2024/03/01 09:20:57;;;;;;;4.60;2.42;;;21.60;99.90;;;;;;4957517;28;20042;-42
2024/03/01 09:23:23;;;;;;;4.43;2.30;;;21.60;99.90;;;;;;4940505;29;20020;-43
2024/03/01 09:25:49;;;;;;;3.83;1.95;;;21.60;99.90;;;;;;4957534;29;20468;-42
2024/03/01 09:28:22;;;;;;;5.53;3.10;;;21.60;99.90;;;;;;4940629;29;20023;-43
2024/03/01 09:30:53;;;;;;;4.38;2.63;;;21.60;99.90;;;;;;4955659;28;20032;-41
2024/03/01 09:33:20;;;;;;;4.32;2.08;;;21.70;99.90;;;;;;4947644;29;20043;-42
2024/03/01 09:35:50;;;;;;;3.90;2.33;;;21.70;99.90;;;;;;4945760;29;20070;-41
2024/03/01 09:38:16;;;;;;;3.90;2.30;;;21.70;99.90;;;;;;4943417;28;20030;-42
2024/03/01 09:40:50;;;;;;;3.15;2.22;;;21.70;99.90;;;;;;4945919;28;20054;-42
2024/03/01 09:43:41;;;;;;;5.95;2.38;;;21.70;99.90;;;;;;4943268;29;20038;-41
2024/03/01 09:46:16;;;;;;;3.83;1.88;;;21.70;99.90;;;;;;4938019;29;20023;-42
2024/03/01 09:49:06;;;;;;;4.35;2.53;;;21.70;99.90;;;;;;4949538;29;20028;-42
2024/03/01 09:51:55;;;;;;;4.72;2.53;;;21.70;99.90;;;;;;4939215;29;20110;-43
2024/03/01 09:54:50;;;;;;;5.63;2.80;;;21.80;99.90;;;;;;4956627;28;20035;-42
2024/03/01 09:57:34;;;;;;;4.28;2.30;;;21.80;99.90;;;;;;4957086;28;20653;-43
2024/03/01 10:00:11;;;;;;;5.25;2.45;;;21.80;99.90;;;;;;4953805;28;20411;-41
2024/03/01 10:03:05;;;;;;;7.17;2.67;;;21.90;99.90;;;;;;4952689;28;20070;-41
2024/03/01 10:05:58;;;;;;;9.98;2.72;;;21.90;99.90;;;;;;4938111;28;20074;-43
2024/03/01 10:08:55;;;;;;;4.93;2.03;;;21.90;99.90;;;;;;4953683;28;20031;-41
2024/03/01 10:11:38;;;;;;;6.70;3.08;;;21.90;99.90;;;;;;4955858;28;20063;-42
2024/03/01 10:14:16;;;;;;;5.40;2.25;;;22.00;99.90;;;;;;4956288;28;20019;-43
2024/03/01 10:16:45;;;;;;;7.15;2.40;;;22.00;99.90;;;;;;4956108;29;20023;-43
2024/03/01 10:19:32;;;;;;;6.07;2.22;;;22.00;99.90;;;;;;4956167;28;20026;-43
2024/03/01 10:22:29;;;;;;;6.00;2.30;;;22.00;99.90;;;;;;4953830;28;20070;-42
2024/03/01 10:25:14;;;;;;;3.97;2.40;;;22.10;99.90;;;;;;4954954;28;20543;-43
2024/03/01 10:27:48;;;;;;;8.25;2.13;;;22.20;99.90;;;;;;4934646;28;20039;-43
2024/03/01 10:30:20;;;;;;;6.03;2.42;;;22.20;99.90;;;;;;4955638;28;21255;-41
2024/03/01 10:33:14;;;;;;;5.13;2.70;;;22.20;99.90;;;;;;4936555;29;20498;-42
2024/03/01 10:36:04;;;;;;;6.50;2.40;;;22.20;99.90;;;;;;4939012;28;20031;-42
2024/03/01 10:38:40;;;;;;;8.60;2.47;;;22.30;99.90;;;;;;4939012;29;20023;-42
2024/03/01 10:41:20;;;;;;;6.65;2.35;;;22.30;99.90;;;;;;4956125;28;20078;-42
2024/03/01 10:44:17;;;;;;;4.07;2.33;;;22.40;99.90;;;;;;4956349;29;20399;-42
2024/03/01 10:46:58;;;;;;;4.38;2.05;;;22.40;99.90;;;;;;4955530;28;20031;-43
2024/03/01 10:49:44;;;;;;;4.00;2.13;;;22.50;99.90;;;;;;4954629;28;20019;-43
2024/03/01 10:52:17;;;;;;;12.00;2.67;;;22.50;99.90;;;;;;4955238;28;20398;-42
2024/03/01 10:54:50;;;;;;;3.58;2.47;;;22.50;99.90;;;;;;4937419;29;20033;-43
2024/03/01 10:57:19;;;;;;;3.90;2.13;;;22.60;99.90;;;;;;4954940;28;20023;-43
2024/03/01 10:59:58;;;;;;;5.70;2.33;;;22.60;99.90;;;;;;4955831;28;20118;-43
2024/03/01 11:02:30;;;;;;;4.85;2.55;;;22.60;99.90;;;;;;4955776;28;20051;-43
2024/03/01 11:05:03;;;;;;;31.25;4.07;;;22.70;99.90;;;;;;4955903;28;20023;-43
2024/03/01 11:07:38;;;;;;;37.40;4.93;;;22.70;99.90;;;;;;4938327;29;20479;-42
2024/03/01 11:10:24;;;;;;;77.47;8.40;;;22.70;99.90;;;;;;4955818;29;20027;-42
2024/03/01 11:13:02;;;;;;;72.05;9.23;;;22.70;99.90;;;;;;4955781;28;20389;-42
2024/03/01 11:15:29;;;;;;;49.03;6.03;;;22.70;99.90;;;;;;4955624;28;20082;-42
2024/03/01 11:18:01;;;;;;;55.17;6.72;;;22.80;99.90;;;;;;4937112;29;20038;-41
2024/03/01 11:20:46;;;;;;;44.08;7.70;;;22.70;99.90;;;;;;4955524;28;20066;-42
2024/03/01 11:23:26;;;;;;;74.25;9.38;;;22.80;99.90;;;;;;4954956;28;20027;-42
2024/03/01 11:26:07;;;;;;;57.10;9.20;;;22.80;99.90;;;;;;4939270;29;20027;-41
2024/03/01 11:28:35;;;;;;;46.22;7.55;;;22.80;99.90;;;;;;4955027;28;20110;-43
2024/03/01 11:31:08;;;;;;;44.90;8.02;;;22.80;99.90;;;;;;4938078;28;20619;-42
2024/03/01 11:33:39;;;;;;;36.83;7.88;;;22.80;99.90;;;;;;4937972;28;20039;-46
2024/03/01 11:36:39;;;;;;;38.00;6.97;;;22.90;99.90;;;;;;4955133;28;20506;-47
2024/03/01 11:39:38;;;;;;;41.22;8.48;;;22.90;99.90;;;;;;4955173;28;20361;-42
2024/03/01 11:42:23;;;;;;;35.97;6.78;;;22.90;99.90;;;;;;4937693;28;20091;-42
2024/03/01 11:44:52;;;;;;;41.72;7.25;;;23.00;99.90;;;;;;4955148;28;20035;-42
2024/03/01 11:47:25;;;;;;;49.53;7.85;;;23.00;99.90;;;;;;4954947;29;20019;-43
2024/03/01 11:50:15;;;;;;;30.08;6.00;;;23.00;99.90;;;;;;4955209;29;20042;-42
2024/03/01 11:53:04;;;;;;;39.45;6.38;;;23.00;99.90;;;;;;4954929;28;20615;-42
2024/03/01 11:56:07;;;;;;;30.27;6.53;;;23.00;99.90;;;;;;4954900;28;20031;-43
2024/03/01 11:58:55;;;;;;;23.48;5.88;;;23.10;99.90;;;;;;4954891;28;20114;-43
2024/03/01 12:01:59;;;;;;;23.80;6.15;;;23.10;99.90;;;;;;4954569;28;20039;-42
2024/03/01 12:04:52;;;;;;;17.65;5.40;;;23.10;99.90;;;;;;4877093;29;20040;-42
2024/03/01 12:07:48;;;;;;;17.08;5.10;;;23.20;99.90;;;;;;4954576;28;20098;-43
2024/03/01 12:10:18;;;;;;;26.70;6.97;;;23.20;99.90;;;;;;4954645;28;20023;-42
2024/03/01 12:13:02;;;;;;;17.85;5.85;;;23.20;99.90;;;;;;4937415;29;20121;-42
2024/03/01 12:15:40;;;;;;;23.23;5.70;;;23.20;99.90;;;;;;4937174;29;20391;-43
2024/03/01 12:18:11;;;;;;;17.95;4.90;;;23.30;99.90;;;;;;4921827;29;20094;-43
2024/03/01 12:20:45;;;;;;;20.48;5.00;;;23.30;99.90;;;;;;4937129;29;20039;-42
2024/03/01 12:23:13;;;;;;;19.90;5.35;;;23.30;99.90;;;;;;4954319;28;20042;-42
2024/03/01 12:25:40;;;;;;;20.55;4.50;;;23.30;99.90;;;;;;4954369;28;20023;-43
2024/03/01 12:28:20;;;;;;;16.85;5.18;;;23.40;99.90;;;;;;4954493;28;20034;-43
2024/03/01 12:31:03;;;;;;;13.80;4.30;;;23.40;99.90;;;;;;4954303;28;20505;-43
2024/03/01 12:33:42;;;;;;;16.80;4.70;;;23.40;99.90;;;;;;4937037;29;20031;-42
2024/03/01 12:36:15;;;;;;;9.80;3.88;;;23.40;99.90;;;;;;4954197;28;20077;-43
2024/03/01 12:38:47;;;;;;;19.42;4.00;;;23.40;99.90;;;;;;4954233;29;20031;-42
2024/03/01 12:41:24;;;;;;;13.15;3.85;;;23.50;99.90;;;;;;4954042;28;20046;-43
2024/03/01 12:43:56;;;;;;;;;;;23.50;99.90;;;;;;4937393;29;20082;-42
2024/03/01 12:46:49;;;;;;;11.82;4.03;;;23.60;99.90;;;;;;4937148;29;19913;-42
2024/03/01 12:49:17;;;;;;;12.98;3.78;;;23.50;99.90;;;;;;4954151;28;20395;-42
2024/03/01 12:52:10;;;;;;;18.77;4.13;;;23.50;99.90;;;;;;4954088;28;20478;-43
2024/03/01 12:54:55;;;;;;;11.60;3.17;;;23.60;99.90;;;;;;4954151;28;20020;-42
2024/03/01 12:57:38;;;;;;;19.17;4.35;;;23.60;99.90;;;;;;4954241;28;20028;-42
2024/03/01 13:00:15;;;;;;;13.68;4.05;;;23.60;99.90;;;;;;4953939;28;20027;-43
2024/03/01 13:03:00;;;;;;;10.75;2.83;;;23.70;99.90;;;;;;4944906;29;20055;-43
2024/03/01 13:05:36;;;;;;;9.88;4.10;;;23.60;99.90;;;;;;4954291;28;20027;-43